sensor_id;sensor_type;location;lat;lon;timestamp;pressure;altitude;pressure_sealevel;temperature;humidity
84318;BME280;74497;51.654;14.238;2024-03-29T00:01:18;98920.25;;;7.57;100.00
84318;BME280;74497;51.654;14.238;2024-03-29T00:03:43;98929.88;;;7.58;100.00
84318;BME280;74497;51.654;14.238;2024-03-29T00:06:10;98929.69;;;7.60;100.00
84318;BME280;74497;51.654;14.238;2024-03-29T00:08:35;98936.34;;;7.56;100.00
84318;BME280;74497;51.654;14.238;2024-03-29T00:11:02;98943.31;;;7.57;100.00
84318;BME280;74497;51.654;14.238;2024-03-29T00:13:28;98943.81;;;7.52;100.00
84318;BME280;74497;51.654;14.238;2024-03-29T00:15:54;98945.47;;;7.53;100.00
84318;BME280;74497;51.654;14.238;2024-03-29T00:18:19;98951.47;;;7.47;100.00
84318;BME280;74497;51.654;14.238;2024-03-29T00:20:45;98947.47;;;7.43;100.00
84318;BME280;74497;51.654;14.238;2024-03-29T00:23:11;98948.16;;;7.45;100.00
84318;BME280;74497;51.654;14.238;2024-03-29T00:25:36;98949.81;;;7.46;100.00
84318;BME280;74497;51.654;14.238;2024-03-29T00:28:02;98959.44;;;7.47;100.00
84318;BME280;74497;51.654;14.238;2024-03-29T00:30:29;98957.13;;;7.36;100.00
84318;BME280;74497;51.654;14.238;2024-03-29T00:32:54;98959.44;;;7.39;100.00
84318;BME280;74497;51.654;14.238;2024-03-29T00:35:20;98962.78;;;7.33;100.00
84318;BME280;74497;51.654;14.238;2024-03-29T00:37:48;98964.25;;;7.36;100.00
84318;BME280;74497;51.654;14.238;2024-03-29T00:40:14;98963.59;;;7.34;100.00
84318;BME280;74497;51.654;14.238;2024-03-29T00:42:40;98964.09;;;7.37;100.00
84318;BME280;74497;51.654;14.238;2024-03-29T00:45:06;98971.72;;;7.40;100.00
84318;BME280;74497;51.654;14.238;2024-03-29T00:47:32;98970.22;;;7.38;100.00
84318;BME280;74497;51.654;14.238;2024-03-29T00:49:58;98972.06;;;7.37;100.00
84318;BME280;74497;51.654;14.238;2024-03-29T00:52:23;98977.34;;;7.37;100.00
84318;BME280;74497;51.654;14.238;2024-03-29T00:54:49;98975.38;;;7.39;100.00
84318;BME280;74497;51.654;14.238;2024-03-29T00:57:15;98982.34;;;7.40;100.00
84318;BME280;74497;51.654;14.238;2024-03-29T00:59:42;98971.38;;;7.43;100.00
84318;BME280;74497;51.654;14.238;2024-03-29T01:02:09;98985.66;;;7.42;100.00
84318;BME280;74497;51.654;14.238;2024-03-29T01:04:35;98979.53;;;7.42;100.00
84318;BME280;74497;51.654;14.238;2024-03-29T01:07:01;98980.00;;;7.37;100.00
84318;BME280;74497;51.654;14.238;2024-03-29T01:09:27;98981.03;;;7.36;100.00
84318;BME280;74497;51.654;14.238;2024-03-29T01:11:52;98975.06;;;7.34;100.00
84318;BME280;74497;51.654;14.238;2024-03-29T01:14:19;98987.50;;;7.34;100.00
84318;BME280;74497;51.654;14.238;2024-03-29T01:16:45;98983.34;;;7.31;100.00
84318;BME280;74497;51.654;14.238;2024-03-29T01:19:10;98986.69;;;7.33;100.00
84318;BME280;74497;51.654;14.238;2024-03-29T01:21:36;98985.69;;;7.26;100.00
84318;BME280;74497;51.654;14.238;2024-03-29T01:24:03;98985.69;;;7.26;100.00
84318;BME280;74497;51.654;14.238;2024-03-29T01:26:28;98989.34;;;7.33;100.00
84318;BME280;74497;51.654;14.238;2024-03-29T01:28:54;98991.81;;;7.26;100.00
84318;BME280;74497;51.654;14.238;2024-03-29T01:31:20;98995.97;;;7.21;100.00
84318;BME280;74497;51.654;14.238;2024-03-29T01:33:46;98997.09;;;7.18;100.00
84318;BME280;74497;51.654;14.238;2024-03-29T01:36:11;98994.44;;;7.18;100.00
84318;BME280;74497;51.654;14.238;2024-03-29T01:38:37;98988.66;;;7.15;100.00
84318;BME280;74497;51.654;14.238;2024-03-29T01:41:03;98989.66;;;7.14;100.00
84318;BME280;74497;51.654;14.238;2024-03-29T01:43:28;98988.81;;;7.21;100.00
84318;BME280;74497;51.654;14.238;2024-03-29T01:45:55;98990.31;;;7.16;100.00
84318;BME280;74497;51.654;14.238;2024-03-29T01:48:24;98982.34;;;7.08;100.00
84318;BME280;74497;51.654;14.238;2024-03-29T01:50:53;98982.84;;;7.11;100.00
84318;BME280;74497;51.654;14.238;2024-03-29T01:53:19;98988.31;;;7.10;100.00
84318;BME280;74497;51.654;14.238;2024-03-29T01:55:45;98983.19;;;7.08;100.00
84318;BME280;74497;51.654;14.238;2024-03-29T01:58:11;98982.19;;;7.09;100.00
84318;BME280;74497;51.654;14.238;2024-03-29T02:00:39;98985.50;;;7.11;100.00
84318;BME280;74497;51.654;14.238;2024-03-29T02:03:07;98981.53;;;7.07;100.00
84318;BME280;74497;51.654;14.238;2024-03-29T02:05:39;98990.81;;;7.03;100.00
84318;BME280;74497;51.654;14.238;2024-03-29T02:08:06;98992.63;;;7.02;100.00
84318;BME280;74497;51.654;14.238;2024-03-29T02:10:33;98997.59;;;6.97;100.00
84318;BME280;74497;51.654;14.238;2024-03-29T02:12:59;98996.09;;;6.95;100.00
84318;BME280;74497;51.654;14.238;2024-03-29T02:15:25;98998.75;;;6.95;100.00
84318;BME280;74497;51.654;14.238;2024-03-29T02:17:51;99003.88;;;6.88;100.00
84318;BME280;74497;51.654;14.238;2024-03-29T02:20:16;99002.22;;;6.87;100.00
84318;BME280;74497;51.654;14.238;2024-03-29T02:22:48;99001.72;;;6.84;100.00
84318;BME280;74497;51.654;14.238;2024-03-29T02:25:16;99007.38;;;6.89;100.00
84318;BME280;74497;51.654;14.238;2024-03-29T02:27:42;99018.16;;;6.87;100.00
84318;BME280;74497;51.654;14.238;2024-03-29T02:30:12;99008.69;;;6.85;100.00
84318;BME280;74497;51.654;14.238;2024-03-29T02:32:38;99008.69;;;6.85;100.00
84318;BME280;74497;51.654;14.238;2024-03-29T02:35:03;99014.81;;;6.85;100.00
84318;BME280;74497;51.654;14.238;2024-03-29T02:37:29;99005.53;;;6.81;100.00
84318;BME280;74497;51.654;14.238;2024-03-29T02:39:55;99015.47;;;6.79;100.00
84318;BME280;74497;51.654;14.238;2024-03-29T02:42:20;99015.63;;;6.77;100.00
84318;BME280;74497;51.654;14.238;2024-03-29T02:44:46;99012.63;;;6.81;100.00
84318;BME280;74497;51.654;14.238;2024-03-29T02:47:12;99008.50;;;6.78;100.00
84318;BME280;74497;51.654;14.238;2024-03-29T02:49:37;99017.75;;;6.74;100.00
84318;BME280;74497;51.654;14.238;2024-03-29T02:52:03;99012.63;;;6.72;100.00
84318;BME280;74497;51.654;14.238;2024-03-29T02:54:29;99009.16;;;6.72;100.00
84318;BME280;74497;51.654;14.238;2024-03-29T02:56:55;99010.31;;;6.69;100.00
84318;BME280;74497;51.654;14.238;2024-03-29T02:59:20;99025.06;;;6.72;100.00
84318;BME280;74497;51.654;14.238;2024-03-29T03:01:46;99021.41;;;6.73;100.00
84318;BME280;74497;51.654;14.238;2024-03-29T03:04:12;99019.59;;;6.73;100.00
84318;BME280;74497;51.654;14.238;2024-03-29T03:06:37;99024.41;;;6.78;100.00
84318;BME280;74497;51.654;14.238;2024-03-29T03:09:03;99041.66;;;6.74;100.00
84318;BME280;74497;51.654;14.238;2024-03-29T03:11:47;99033.53;;;6.75;100.00
84318;BME280;74497;51.654;14.238;2024-03-29T03:14:13;99038.34;;;6.80;100.00
84318;BME280;74497;51.654;14.238;2024-03-29T03:16:39;99041.69;;;6.82;100.00
84318;BME280;74497;51.654;14.238;2024-03-29T03:19:04;99049.78;;;6.81;100.00
84318;BME280;74497;51.654;14.238;2024-03-29T03:21:30;99047.66;;;6.84;100.00
84318;BME280;74497;51.654;14.238;2024-03-29T03:23:56;99044.00;;;6.85;100.00
84318;BME280;74497;51.654;14.238;2024-03-29T03:26:21;99052.66;;;6.87;100.00
84318;BME280;74497;51.654;14.238;2024-03-29T03:28:47;99052.66;;;6.87;100.00
84318;BME280;74497;51.654;14.238;2024-03-29T03:31:13;99043.69;;;6.88;100.00
84318;BME280;74497;51.654;14.238;2024-03-29T03:33:38;99041.03;;;6.88;100.00
84318;BME280;74497;51.654;14.238;2024-03-29T03:36:05;99040.03;;;6.89;100.00
84318;BME280;74497;51.654;14.238;2024-03-29T03:38:31;99043.84;;;6.87;100.00
84318;BME280;74497;51.654;14.238;2024-03-29T03:40:58;99042.69;;;6.89;100.00
84318;BME280;74497;51.654;14.238;2024-03-29T03:43:24;99054.81;;;6.92;100.00
84318;BME280;74497;51.654;14.238;2024-03-29T03:45:49;99043.19;;;6.93;100.00
84318;BME280;74497;51.654;14.238;2024-03-29T03:48:15;99038.72;;;6.93;100.00
84318;BME280;74497;51.654;14.238;2024-03-29T03:50:41;99029.25;;;6.91;100.00
84318;BME280;74497;51.654;14.238;2024-03-29T03:53:07;99033.22;;;6.87;100.00
84318;BME280;74497;51.654;14.238;2024-03-29T03:55:36;99041.53;;;6.84;100.00
84318;BME280;74497;51.654;14.238;2024-03-29T03:58:03;99039.97;;;6.73;100.00
84318;BME280;74497;51.654;14.238;2024-03-29T04:00:29;99036.13;;;6.59;100.00
84318;BME280;74497;51.654;14.238;2024-03-29T04:02:54;99046.25;;;6.56;100.00
84318;BME280;74497;51.654;14.238;2024-03-29T04:05:22;99038.44;;;6.54;100.00
84318;BME280;74497;51.654;14.238;2024-03-29T04:07:48;99041.72;;;6.48;100.00
84318;BME280;74497;51.654;14.238;2024-03-29T04:10:14;99049.19;;;6.44;100.00
84318;BME280;74497;51.654;14.238;2024-03-29T04:12:40;99046.69;;;6.43;100.00
84318;BME280;74497;51.654;14.238;2024-03-29T04:15:06;99032.91;;;6.39;100.00
84318;BME280;74497;51.654;14.238;2024-03-29T04:17:32;99038.03;;;6.41;100.00
84318;BME280;74497;51.654;14.238;2024-03-29T04:19:59;99047.81;;;6.40;100.00
84318;BME280;74497;51.654;14.238;2024-03-29T04:22:27;99037.38;;;6.39;100.00
84318;BME280;74497;51.654;14.238;2024-03-29T04:24:53;99033.69;;;6.32;100.00
84318;BME280;74497;51.654;14.238;2024-03-29T04:27:19;99041.66;;;6.32;100.00
84318;BME280;74497;51.654;14.238;2024-03-29T04:29:44;99046.97;;;6.32;100.00
84318;BME280;74497;51.654;14.238;2024-03-29T04:32:10;99039.00;;;6.32;100.00
84318;BME280;74497;51.654;14.238;2024-03-29T04:34:36;99023.72;;;6.26;100.00
84318;BME280;74497;51.654;14.238;2024-03-29T04:37:02;99035.78;;;6.20;100.00
84318;BME280;74497;51.654;14.238;2024-03-29T04:39:28;99040.09;;;6.21;100.00
84318;BME280;74497;51.654;14.238;2024-03-29T04:41:53;99028.88;;;6.27;100.00
84318;BME280;74497;51.654;14.238;2024-03-29T04:44:24;99025.19;;;6.20;100.00
84318;BME280;74497;51.654;14.238;2024-03-29T04:46:51;99037.63;;;6.19;100.00
84318;BME280;74497;51.654;14.238;2024-03-29T04:49:19;99049.22;;;6.18;100.00
84318;BME280;74497;51.654;14.238;2024-03-29T04:51:49;99045.09;;;6.24;100.00
84318;BME280;74497;51.654;14.238;2024-03-29T04:54:17;99049.63;;;6.32;100.00
84318;BME280;74497;51.654;14.238;2024-03-29T04:56:43;99050.47;;;6.40;100.00
84318;BME280;74497;51.654;14.238;2024-03-29T04:59:09;99049.66;;;6.48;100.00
84318;BME280;74497;51.654;14.238;2024-03-29T05:01:36;99043.91;;;6.61;100.00
84318;BME280;74497;51.654;14.238;2024-03-29T05:04:02;99020.41;;;6.66;100.00
84318;BME280;74497;51.654;14.238;2024-03-29T05:06:29;99029.69;;;6.62;100.00
84318;BME280;74497;51.654;14.238;2024-03-29T05:08:55;99051.59;;;6.72;100.00
84318;BME280;74497;51.654;14.238;2024-03-29T05:11:21;99052.59;;;6.71;100.00
84318;BME280;74497;51.654;14.238;2024-03-29T05:13:47;99068.19;;;6.74;100.00
84318;BME280;74497;51.654;14.238;2024-03-29T05:16:13;99053.78;;;6.76;100.00
84318;BME280;74497;51.654;14.238;2024-03-29T05:18:38;99052.31;;;6.82;100.00
84318;BME280;74497;51.654;14.238;2024-03-29T05:21:04;99049.84;;;6.97;100.00
84318;BME280;74497;51.654;14.238;2024-03-29T05:23:30;99040.88;;;6.98;100.00
84318;BME280;74497;51.654;14.238;2024-03-29T05:25:56;99040.06;;;6.97;100.00
84318;BME280;74497;51.654;14.238;2024-03-29T05:28:21;99032.09;;;6.97;100.00
84318;BME280;74497;51.654;14.238;2024-03-29T05:30:47;99029.13;;;7.00;100.00
84318;BME280;74497;51.654;14.238;2024-03-29T05:33:13;99018.50;;;7.00;100.00
84318;BME280;74497;51.654;14.238;2024-03-29T05:35:38;99014.88;;;7.01;100.00
84318;BME280;74497;51.654;14.238;2024-03-29T05:38:04;99012.88;;;7.03;100.00
84318;BME280;74497;51.654;14.238;2024-03-29T05:40:30;99021.00;;;7.10;100.00
84318;BME280;74497;51.654;14.238;2024-03-29T05:42:55;99023.34;;;7.13;100.00
84318;BME280;74497;51.654;14.238;2024-03-29T05:45:29;99030.78;;;7.18;100.00
84318;BME280;74497;51.654;14.238;2024-03-29T05:47:57;99038.94;;;7.24;100.00
84318;BME280;74497;51.654;14.238;2024-03-29T05:50:23;99043.09;;;7.35;100.00
84318;BME280;74497;51.654;14.238;2024-03-29T05:52:51;99027.00;;;7.53;100.00
84318;BME280;74497;51.654;14.238;2024-03-29T05:55:17;99018.38;;;7.67;100.00
84318;BME280;74497;51.654;14.238;2024-03-29T05:57:43;99012.19;;;7.75;100.00
84318;BME280;74497;51.654;14.238;2024-03-29T06:00:12;99003.88;;;7.86;100.00
84318;BME280;74497;51.654;14.238;2024-03-29T06:02:42;99003.22;;;7.92;100.00
84318;BME280;74497;51.654;14.238;2024-03-29T06:05:10;99017.16;;;8.02;100.00
84318;BME280;74497;51.654;14.238;2024-03-29T06:07:36;99039.41;;;8.09;100.00
84318;BME280;74497;51.654;14.238;2024-03-29T06:10:02;99052.84;;;8.16;100.00
84318;BME280;74497;51.654;14.238;2024-03-29T06:12:31;99057.16;;;8.25;100.00
84318;BME280;74497;51.654;14.238;2024-03-29T06:14:57;99063.28;;;8.34;100.00
84318;BME280;74497;51.654;14.238;2024-03-29T06:17:42;99068.63;;;8.26;100.00
84318;BME280;74497;51.654;14.238;2024-03-29T06:20:07;99068.28;;;8.29;100.00
84318;BME280;74497;51.654;14.238;2024-03-29T06:22:33;99074.09;;;8.32;100.00
84318;BME280;74497;51.654;14.238;2024-03-29T06:24:59;99067.28;;;8.30;100.00
84318;BME280;74497;51.654;14.238;2024-03-29T06:27:34;99073.09;;;8.33;100.00
84318;BME280;74497;51.654;14.238;2024-03-29T06:30:00;99073.44;;;8.38;100.00
84318;BME280;74497;51.654;14.238;2024-03-29T06:32:26;99077.59;;;8.41;100.00
84318;BME280;74497;51.654;14.238;2024-03-29T06:34:52;99084.72;;;8.49;100.00
84318;BME280;74497;51.654;14.238;2024-03-29T06:37:17;99085.41;;;8.43;100.00
84318;BME280;74497;51.654;14.238;2024-03-29T06:39:44;99091.22;;;8.46;100.00
84318;BME280;74497;51.654;14.238;2024-03-29T06:42:10;99103.81;;;8.52;100.00
84318;BME280;74497;51.654;14.238;2024-03-29T06:44:35;99101.16;;;8.52;100.00
84318;BME280;74497;51.654;14.238;2024-03-29T06:47:02;99095.50;;;8.55;100.00
84318;BME280;74497;51.654;14.238;2024-03-29T06:49:28;99102.31;;;8.58;100.00
84318;BME280;74497;51.654;14.238;2024-03-29T06:51:54;99096.56;;;8.46;100.00
84318;BME280;74497;51.654;14.238;2024-03-29T06:54:22;99098.69;;;8.51;100.00
84318;BME280;74497;51.654;14.238;2024-03-29T06:56:52;99102.84;;;8.53;100.00
84318;BME280;74497;51.654;14.238;2024-03-29T06:59:18;99101.88;;;8.46;100.00
84318;BME280;74497;51.654;14.238;2024-03-29T07:01:44;99102.16;;;8.51;100.00
84318;BME280;74497;51.654;14.238;2024-03-29T07:04:10;99108.47;;;8.58;100.00
84318;BME280;74497;51.654;14.238;2024-03-29T07:06:35;99117.81;;;8.54;100.00
84318;BME280;74497;51.654;14.238;2024-03-29T07:09:03;99118.47;;;8.56;100.00
84318;BME280;74497;51.654;14.238;2024-03-29T07:11:29;99119.09;;;8.58;100.00
84318;BME280;74497;51.654;14.238;2024-03-29T07:13:55;99118.97;;;8.60;100.00
84318;BME280;74497;51.654;14.238;2024-03-29T07:16:21;99115.28;;;8.61;100.00
84318;BME280;74497;51.654;14.238;2024-03-29T07:18:46;99131.41;;;8.68;100.00
84318;BME280;74497;51.654;14.238;2024-03-29T07:21:12;99133.38;;;8.74;100.00
84318;BME280;74497;51.654;14.238;2024-03-29T07:23:38;99132.19;;;8.76;100.00
84318;BME280;74497;51.654;14.238;2024-03-29T07:26:04;99130.19;;;8.86;100.00
84318;BME280;74497;51.654;14.238;2024-03-29T07:28:31;99139.44;;;8.99;100.00
84318;BME280;74497;51.654;14.238;2024-03-29T07:30:57;99133.44;;;8.97;100.00
84318;BME280;74497;51.654;14.238;2024-03-29T07:33:24;99123.59;;;9.05;100.00
84318;BME280;74497;51.654;14.238;2024-03-29T07:35:53;99139.59;;;9.05;100.00
84318;BME280;74497;51.654;14.238;2024-03-29T07:38:19;99159.38;;;9.11;100.00
84318;BME280;74497;51.654;14.238;2024-03-29T07:40:46;99159.38;;;9.11;100.00
84318;BME280;74497;51.654;14.238;2024-03-29T07:43:12;99156.72;;;9.11;100.00
84318;BME280;74497;51.654;14.238;2024-03-29T07:45:40;99156.16;;;9.15;100.00
84318;BME280;74497;51.654;14.238;2024-03-29T07:48:09;99153.13;;;9.27;100.00
84318;BME280;74497;51.654;14.238;2024-03-29T07:50:34;99148.75;;;9.34;100.00
84318;BME280;74497;51.654;14.238;2024-03-29T07:53:01;99142.34;;;9.51;100.00
84318;BME280;74497;51.654;14.238;2024-03-29T07:55:27;99140.09;;;9.63;100.00
84318;BME280;74497;51.654;14.238;2024-03-29T07:57:53;99135.34;;;9.73;100.00
84318;BME280;74497;51.654;14.238;2024-03-29T08:00:18;99151.25;;;9.89;100.00
84318;BME280;74497;51.654;14.238;2024-03-29T08:02:44;99166.00;;;10.00;100.00
84318;BME280;74497;51.654;14.238;2024-03-29T08:05:11;99161.59;;;10.07;100.00
84318;BME280;74497;51.654;14.238;2024-03-29T08:07:37;99154.31;;;10.24;100.00
84318;BME280;74497;51.654;14.238;2024-03-29T08:10:03;99175.34;;;10.42;100.00
84318;BME280;74497;51.654;14.238;2024-03-29T08:12:29;99173.69;;;10.41;100.00
84318;BME280;74497;51.654;14.238;2024-03-29T08:14:54;99180.25;;;10.53;100.00
84318;BME280;74497;51.654;14.238;2024-03-29T08:17:20;99183.84;;;10.60;100.00
84318;BME280;74497;51.654;14.238;2024-03-29T08:19:46;99182.56;;;10.56;100.00
84318;BME280;74497;51.654;14.238;2024-03-29T08:22:13;99187.81;;;10.64;100.00
84318;BME280;74497;51.654;14.238;2024-03-29T08:24:39;99199.75;;;10.68;100.00
84318;BME280;74497;51.654;14.238;2024-03-29T08:27:05;99185.97;;;10.65;100.00
84318;BME280;74497;51.654;14.238;2024-03-29T08:29:31;99183.50;;;10.63;100.00
84318;BME280;74497;51.654;14.238;2024-03-29T08:31:56;99180.00;;;10.63;100.00
84318;BME280;74497;51.654;14.238;2024-03-29T08:34:22;99187.63;;;10.66;100.00
84318;BME280;74497;51.654;14.238;2024-03-29T08:36:48;99195.09;;;10.70;100.00
84318;BME280;74497;51.654;14.238;2024-03-29T08:39:13;99187.38;;;10.75;100.00
84318;BME280;74497;51.654;14.238;2024-03-29T08:41:39;99194.19;;;10.78;100.00
84318;BME280;74497;51.654;14.238;2024-03-29T08:44:06;99195.28;;;10.83;100.00
84318;BME280;74497;51.654;14.238;2024-03-29T08:46:32;99188.09;;;10.84;100.00
84318;BME280;74497;51.654;14.238;2024-03-29T08:48:58;99194.91;;;10.87;100.00
84318;BME280;74497;51.654;14.238;2024-03-29T08:51:23;99194.25;;;10.99;100.00
84318;BME280;74497;51.654;14.238;2024-03-29T08:53:49;99195.03;;;11.08;100.00
84318;BME280;74497;51.654;14.238;2024-03-29T08:56:15;99186.44;;;11.13;100.00
84318;BME280;74497;51.654;14.238;2024-03-29T08:58:41;99194.53;;;11.19;100.00
84318;BME280;74497;51.654;14.238;2024-03-29T09:01:07;99175.28;;;11.24;100.00
84318;BME280;74497;51.654;14.238;2024-03-29T09:03:33;99178.03;;;11.30;100.00
84318;BME280;74497;51.654;14.238;2024-03-29T09:05:58;99175.44;;;11.37;100.00
84318;BME280;74497;51.654;14.238;2024-03-29T09:08:24;99173.41;;;11.39;98.17
84318;BME280;74497;51.654;14.238;2024-03-29T09:10:50;99173.66;;;11.44;99.18
84318;BME280;74497;51.654;14.238;2024-03-29T09:13:15;99182.22;;;11.54;96.28
84318;BME280;74497;51.654;14.238;2024-03-29T09:15:41;99175.03;;;11.55;96.43
84318;BME280;74497;51.654;14.238;2024-03-29T09:18:08;99174.28;;;11.61;97.33
84318;BME280;74497;51.654;14.238;2024-03-29T09:20:44;99181.16;;;11.70;95.85
84318;BME280;74497;51.654;14.238;2024-03-29T09:23:11;99169.06;;;11.74;93.80
84318;BME280;74497;51.654;14.238;2024-03-29T09:25:40;99156.25;;;11.84;94.73
84318;BME280;74497;51.654;14.238;2024-03-29T09:28:06;99158.41;;;11.96;90.75
84318;BME280;74497;51.654;14.238;2024-03-29T09:30:32;99152.28;;;12.02;90.24
84318;BME280;74497;51.654;14.238;2024-03-29T09:32:58;99156.09;;;12.14;90.40
84318;BME280;74497;51.654;14.238;2024-03-29T09:35:23;99156.19;;;12.27;95.25
84318;BME280;74497;51.654;14.238;2024-03-29T09:37:50;99163.34;;;12.41;94.28
84318;BME280;74497;51.654;14.238;2024-03-29T09:40:16;99163.97;;;12.43;89.70
84318;BME280;74497;51.654;14.238;2024-03-29T09:42:43;99163.56;;;12.47;89.10
84318;BME280;74497;51.654;14.238;2024-03-29T09:45:10;99149.22;;;12.54;84.50
84318;BME280;74497;51.654;14.238;2024-03-29T09:47:37;99151.38;;;12.72;78.90
84318;BME280;74497;51.654;14.238;2024-03-29T09:50:03;99155.16;;;12.84;75.68
84318;BME280;74497;51.654;14.238;2024-03-29T09:52:32;99150.72;;;12.98;76.88
84318;BME280;74497;51.654;14.238;2024-03-29T09:54:58;99147.47;;;13.09;72.96
84318;BME280;74497;51.654;14.238;2024-03-29T09:57:25;99154.00;;;13.35;73.99
84318;BME280;74497;51.654;14.238;2024-03-29T09:59:55;99141.72;;;13.67;73.20
84318;BME280;74497;51.654;14.238;2024-03-29T10:02:25;99139.91;;;13.81;72.79
84318;BME280;74497;51.654;14.238;2024-03-29T10:04:56;99142.16;;;13.77;71.26
84318;BME280;74497;51.654;14.238;2024-03-29T10:07:23;99123.81;;;13.81;74.99
84318;BME280;74497;51.654;14.238;2024-03-29T10:09:50;99144.25;;;13.95;72.78
84318;BME280;74497;51.654;14.238;2024-03-29T10:12:16;99119.88;;;13.96;73.99
84318;BME280;74497;51.654;14.238;2024-03-29T10:14:47;99118.84;;;14.24;76.31
84318;BME280;74497;51.654;14.238;2024-03-29T10:17:19;99107.50;;;14.55;76.61
84318;BME280;74497;51.654;14.238;2024-03-29T10:19:45;99096.91;;;14.80;73.33
84318;BME280;74497;51.654;14.238;2024-03-29T10:22:11;99087.75;;;14.87;73.11
84318;BME280;74497;51.654;14.238;2024-03-29T10:24:36;99086.47;;;15.03;78.39
84318;BME280;74497;51.654;14.238;2024-03-29T10:27:03;99078.72;;;15.20;72.98
84318;BME280;74497;51.654;14.238;2024-03-29T10:29:29;99068.88;;;15.46;67.17
84318;BME280;74497;51.654;14.238;2024-03-29T10:31:55;99066.31;;;15.64;61.59
84318;BME280;74497;51.654;14.238;2024-03-29T10:34:21;99069.41;;;15.67;61.70
84318;BME280;74497;51.654;14.238;2024-03-29T10:36:47;99071.00;;;15.75;56.37
84318;BME280;74497;51.654;14.238;2024-03-29T10:39:13;99063.63;;;15.89;55.15
84318;BME280;74497;51.654;14.238;2024-03-29T10:41:40;99060.25;;;16.00;54.62
84318;BME280;74497;51.654;14.238;2024-03-29T10:44:09;99067.28;;;16.01;53.00
84318;BME280;74497;51.654;14.238;2024-03-29T10:46:37;99060.19;;;15.82;51.98
84318;BME280;74497;51.654;14.238;2024-03-29T10:49:07;99057.59;;;15.68;53.15
84318;BME280;74497;51.654;14.238;2024-03-29T10:51:38;99055.75;;;15.62;55.37
84318;BME280;74497;51.654;14.238;2024-03-29T10:54:06;99047.94;;;15.54;55.15
84318;BME280;74497;51.654;14.238;2024-03-29T10:56:35;99053.25;;;15.67;55.52
84318;BME280;74497;51.654;14.238;2024-03-29T10:59:07;99045.72;;;15.76;52.24
84318;BME280;74497;51.654;14.238;2024-03-29T11:01:34;99043.38;;;15.86;47.63
84318;BME280;74497;51.654;14.238;2024-03-29T11:04:13;99053.47;;;15.66;43.80
84318;BME280;74497;51.654;14.238;2024-03-29T11:06:42;99059.06;;;15.64;43.85
84318;BME280;74497;51.654;14.238;2024-03-29T11:09:13;99058.19;;;15.71;44.09
84318;BME280;74497;51.654;14.238;2024-03-29T11:11:42;99059.13;;;15.83;43.33
84318;BME280;74497;51.654;14.238;2024-03-29T11:14:15;99034.31;;;15.81;43.71
84318;BME280;74497;51.654;14.238;2024-03-29T11:16:43;99014.00;;;15.85;45.92
84318;BME280;74497;51.654;14.238;2024-03-29T11:19:14;99017.16;;;15.75;45.60
84318;BME280;74497;51.654;14.238;2024-03-29T11:21:41;99015.00;;;15.84;45.94
84318;BME280;74497;51.654;14.238;2024-03-29T11:24:09;99009.13;;;15.68;46.43
84318;BME280;74497;51.654;14.238;2024-03-29T11:26:35;99007.50;;;15.67;47.97
84318;BME280;74497;51.654;14.238;2024-03-29T11:29:01;98996.56;;;15.56;48.31
84318;BME280;74497;51.654;14.238;2024-03-29T11:31:28;98992.75;;;15.70;52.54
84318;BME280;74497;51.654;14.238;2024-03-29T11:33:57;98997.78;;;15.66;50.51
84318;BME280;74497;51.654;14.238;2024-03-29T11:36:29;98997.38;;;15.63;47.11
84318;BME280;74497;51.654;14.238;2024-03-29T11:38:57;99002.78;;;15.56;45.53
84318;BME280;74497;51.654;14.238;2024-03-29T11:41:27;99006.16;;;15.45;44.06
84318;BME280;74497;51.654;14.238;2024-03-29T11:43:54;99027.31;;;15.41;46.04
84318;BME280;74497;51.654;14.238;2024-03-29T11:46:21;99014.88;;;15.47;46.33
84318;BME280;74497;51.654;14.238;2024-03-29T11:48:47;99021.88;;;15.48;44.52
84318;BME280;74497;51.654;14.238;2024-03-29T11:51:19;99024.13;;;15.51;44.67
84318;BME280;74497;51.654;14.238;2024-03-29T11:53:47;99026.22;;;15.49;44.97
84318;BME280;74497;51.654;14.238;2024-03-29T11:56:13;99029.28;;;15.59;46.25
84318;BME280;74497;51.654;14.238;2024-03-29T11:58:40;99019.91;;;15.68;45.38
84318;BME280;74497;51.654;14.238;2024-03-29T12:01:06;99039.56;;;15.69;47.38
84318;BME280;74497;51.654;14.238;2024-03-29T12:03:38;99043.44;;;15.80;47.19
84318;BME280;74497;51.654;14.238;2024-03-29T12:06:04;99030.44;;;15.95;48.01
84318;BME280;74497;51.654;14.238;2024-03-29T12:08:32;99042.28;;;15.94;51.75
84318;BME280;74497;51.654;14.238;2024-03-29T12:10:59;99035.19;;;16.00;49.66
84318;BME280;74497;51.654;14.238;2024-03-29T12:13:25;99032.19;;;16.08;48.90
84318;BME280;74497;51.654;14.238;2024-03-29T12:15:51;99044.25;;;16.05;46.86
84318;BME280;74497;51.654;14.238;2024-03-29T12:18:19;99039.91;;;16.04;46.35
84318;BME280;74497;51.654;14.238;2024-03-29T12:20:45;99028.09;;;16.05;47.73
84318;BME280;74497;51.654;14.238;2024-03-29T12:23:19;99038.88;;;16.05;46.11
84318;BME280;74497;51.654;14.238;2024-03-29T12:25:46;99044.31;;;15.99;47.56
84318;BME280;74497;51.654;14.238;2024-03-29T12:28:13;99044.09;;;16.00;46.84
84318;BME280;74497;51.654;14.238;2024-03-29T12:30:47;99035.88;;;16.13;50.38
84318;BME280;74497;51.654;14.238;2024-03-29T12:33:17;99039.63;;;16.12;47.37
84318;BME280;74497;51.654;14.238;2024-03-29T12:35:49;99036.28;;;16.17;49.05
84318;BME280;74497;51.654;14.238;2024-03-29T12:38:16;99039.50;;;16.26;49.30
84318;BME280;74497;51.654;14.238;2024-03-29T12:40:44;99026.94;;;16.38;52.64
84318;BME280;74497;51.654;14.238;2024-03-29T12:43:11;99042.66;;;16.41;50.22
84318;BME280;74497;51.654;14.238;2024-03-29T12:45:39;99033.47;;;16.48;49.13
84318;BME280;74497;51.654;14.238;2024-03-29T12:48:15;99033.09;;;16.45;48.32